Time;durP1;ratioP1;P1;durP2;ratioP2;P2;SDS_P1;SDS_P2;PMS_P1;PMS_P2;Temp;Humidity;BMP_temperature;BMP_pressure;BME280_temperature;BME280_humidity;BME280_pressure;Samples;Min_cycle;Max_cycle;Signal;HPM_P1;HPM_P2
2021/04/23 00:00:14;;;;;;;7.53;1.98;;;;;;;5.83;45.11;98386.88;10240709;28;20047;-76
2021/04/23 00:05:46;;;;;;;9.68;2.03;;;;;;;5.78;45.04;98376.66;10242009;29;20133;-75
2021/04/23 00:11:07;;;;;;;8.77;2.40;;;;;;;5.72;45.17;98380.34;10239567;28;20060;-75
2021/04/23 00:16:27;;;;;;;8.35;2.05;;;;;;;5.60;45.38;98376.44;10240404;29;20047;-75
2021/04/23 00:21:49;;;;;;;6.88;2.10;;;;;;;5.51;45.91;98374.16;10213921;29;20074;-75
2021/04/23 00:27:09;;;;;;;5.22;1.60;;;;;;;5.40;45.81;98377.97;10240008;29;20065;-74
2021/04/23 00:38:13;;;;;;;5.63;1.60;;;;;;;5.25;46.67;98372.34;10241829;29;20051;-74
2021/04/23 00:43:38;;;;;;;6.55;1.63;;;;;;;5.20;47.27;98370.44;10239638;29;20043;-76
2021/04/23 00:48:59;;;;;;;8.73;2.25;;;;;;;5.14;47.42;98364.31;10239550;29;20403;-74
2021/04/23 00:54:24;;;;;;;;;;;;;;;5.09;48.04;98368.72;10227552;29;20047;-75
2021/04/23 00:59:44;;;;;;;6.95;2.30;;;;;;;5.00;48.30;98360.16;10212637;29;19922;-75
2021/04/23 01:05:05;;;;;;;7.63;2.30;;;;;;;4.97;48.09;98362.00;10238763;29;20047;-75
2021/04/23 01:10:27;;;;;;;6.25;1.90;;;;;;;4.92;48.25;98356.59;10225974;29;20382;-75
2021/04/23 01:15:47;;;;;;;6.97;1.65;;;;;;;4.86;48.76;98365.78;10239027;29;20039;-75
2021/04/23 01:21:24;;;;;;;6.53;1.90;;;;;;;4.79;49.88;98363.69;10238773;29;20384;-74
2021/04/23 01:26:50;;;;;;;7.13;2.03;;;;;;;4.75;49.28;98357.03;10232574;29;20098;-75
2021/04/23 01:32:10;;;;;;;8.38;1.95;;;;;;;4.72;48.87;98366.38;10233062;29;20051;-74
2021/04/23 01:37:31;;;;;;;5.25;1.70;;;;;;;4.67;49.03;98353.44;10232865;29;20048;-74
2021/04/23 01:42:51;;;;;;;5.32;1.55;;;;;;;4.65;49.47;98369.84;10246071;29;20050;-75
2021/04/23 01:48:13;;;;;;;8.05;2.30;;;;;;;4.61;49.18;98367.41;10232357;29;20394;-74
2021/04/23 01:53:34;;;;;;;7.07;1.90;;;;;;;4.52;49.83;98365.84;10245728;29;20048;-74
2021/04/23 01:58:54;;;;;;;8.20;1.92;;;;;;;4.39;50.19;98362.41;10232086;29;20051;-75
2021/04/23 02:04:15;;;;;;;8.90;2.03;;;;;;;4.25;49.98;98365.22;10245307;29;20102;-76
2021/04/23 02:09:35;;;;;;;6.00;1.95;;;;;;;4.07;50.39;98365.41;10231605;29;20051;-75
2021/04/23 02:14:56;;;;;;;8.02;2.30;;;;;;;3.88;50.85;98368.31;10244994;29;20051;-75
2021/04/23 02:20:20;;;;;;;7.55;2.65;;;;;;;3.74;51.64;98379.38;10244545;29;20380;-75
2021/04/23 02:25:42;;;;;;;6.80;2.30;;;;;;;3.63;51.78;98381.63;10231584;29;20086;-75
2021/04/23 02:31:07;;;;;;;7.53;2.40;;;;;;;3.58;52.18;98385.97;10258099;28;20044;-75
2021/04/23 02:36:27;;;;;;;11.35;2.70;;;;;;;3.61;51.45;98384.16;10230069;28;20426;-74
2021/04/23 02:41:52;;;;;;;6.30;1.98;;;;;;;3.58;52.46;98380.47;10243861;29;20123;-75
2021/04/23 02:47:12;;;;;;;8.18;2.13;;;;;;;3.58;52.02;98385.25;10243700;29;20047;-75
2021/04/23 02:52:33;;;;;;;9.23;2.42;;;;;;;3.55;52.73;98387.03;10243396;29;20066;-75
2021/04/23 02:58:15;;;;;;;5.88;2.35;;;;;;;3.55;53.19;98389.78;10229734;29;20046;-75
2021/04/23 03:03:35;;;;;;;9.18;2.50;;;;;;;3.60;53.13;98393.72;10229412;29;20043;-74
2021/04/23 03:08:57;;;;;;;6.10;2.10;;;;;;;3.61;53.23;98386.94;10243078;29;20047;-75
2021/04/23 03:14:17;;;;;;;5.68;2.47;;;;;;;3.63;53.39;98387.13;10242875;29;20562;-75
2021/04/23 03:19:38;;;;;;;5.72;2.42;;;;;;;3.60;54.20;98391.72;10242477;29;20047;-75
2021/04/23 03:24:58;;;;;;;9.65;2.50;;;;;;;3.58;53.69;98399.78;10241899;29;20059;-75
2021/04/23 03:30:22;;;;;;;7.55;2.22;;;;;;;3.53;54.55;98395.09;10242022;29;20062;-75
2021/04/23 03:35:54;;;;;;;12.37;3.10;;;;;;;3.51;54.69;98389.38;10242294;29;20074;-74
2021/04/23 03:41:39;;;;;;;8.10;2.33;;;;;;;3.47;54.79;98390.97;10215993;29;20043;-74
2021/04/23 03:47:00;;;;;;;10.80;2.58;;;;;;;3.44;54.66;98390.00;10227978;28;20044;-75
2021/04/23 03:52:20;;;;;;;5.32;2.10;;;;;;;3.46;55.21;98401.25;10254451;29;20053;-75
2021/04/23 03:57:41;;;;;;;9.27;2.78;;;;;;;3.48;54.63;98415.28;10240913;29;20395;-75
2021/04/23 04:03:01;;;;;;;9.02;2.58;;;;;;;3.52;54.42;98414.97;10240457;29;20048;-75
2021/04/23 04:08:21;;;;;;;8.65;2.60;;;;;;;3.56;54.38;98424.41;10227275;29;20047;-74
2021/04/23 04:13:42;;;;;;;9.52;2.22;;;;;;;3.63;55.27;98436.84;10240533;29;20040;-75
2021/04/23 04:19:02;;;;;;;7.97;2.08;;;;;;;3.66;54.94;98430.97;10226861;29;20118;-76
2021/04/23 04:24:23;;;;;;;6.40;2.50;;;;;;;3.78;54.79;98433.53;10226773;29;20059;-75
2021/04/23 04:29:45;;;;;;;9.63;2.28;;;;;;;3.89;54.86;98436.09;10240067;29;20047;-75
2021/04/23 04:35:09;;;;;;;9.07;2.40;;;;;;;4.05;54.31;98440.50;10240181;29;20055;-74
2021/04/23 04:40:30;;;;;;;6.32;2.45;;;;;;;4.19;54.52;98455.06;10239574;29;20048;-75
2021/04/23 04:45:50;;;;;;;6.95;2.42;;;;;;;4.47;54.43;98460.00;10239020;29;20102;-75
2021/04/23 04:51:11;;;;;;;6.75;2.10;;;;;;;4.74;54.15;98472.44;10226412;29;20039;-76
2021/04/23 04:56:31;;;;;;;8.13;2.50;;;;;;;5.02;53.84;98479.31;10239184;28;20043;-75
2021/04/23 05:01:52;;;;;;;6.47;2.88;;;;;;;5.45;53.72;98482.28;10247219;29;20043;-75
2021/04/23 05:07:12;;;;;;;10.60;2.70;;;;;;;6.04;53.20;98492.84;10247184;28;20058;-75
2021/04/23 05:12:33;;;;;;;7.18;2.58;;;;;;;6.68;52.63;98494.06;10233689;29;20047;-75
2021/04/23 05:17:53;;;;;;;7.57;2.58;;;;;;;7.90;51.67;98508.72;10247106;29;20114;-75
2021/04/23 05:23:14;;;;;;;7.30;3.03;;;;;;;12.80;52.97;98529.91;10246953;29;20063;-75
2021/04/23 05:28:34;;;;;;;8.15;2.70;;;;;;;21.02;46.71;98532.25;10246327;29;20409;-76
2021/04/23 05:33:55;;;;;;;6.90;2.88;;;;;;;27.56;34.04;98536.47;10246133;29;20047;-73
2021/04/23 05:39:15;;;;;;;5.97;2.47;;;;;;;32.44;23.35;98548.84;10259377;29;20043;-73
2021/04/23 05:44:36;;;;;;;3.92;2.08;;;;;;;35.17;15.35;98541.84;10238024;29;20063;-76
2021/04/23 05:49:56;;;;;;;4.95;2.13;;;;;;;37.60;12.13;98549.31;10232180;29;20398;-74
2021/04/23 05:55:18;;;;;;;10.02;2.55;;;;;;;39.59;9.32;98556.81;10245276;29;20047;-75
2021/04/23 06:00:43;;;;;;;4.57;1.98;;;;;;;40.86;7.29;98553.31;10206025;29;20048;-78
2021/04/23 06:06:04;;;;;;;5.03;2.30;;;;;;;40.72;7.00;98553.16;10245351;29;20059;-76
2021/04/23 06:11:25;;;;;;;5.70;1.85;;;;;;;41.64;6.11;98553.56;10244601;29;20043;-76
2021/04/23 06:16:45;;;;;;;7.80;2.03;;;;;;;42.45;5.45;98551.28;10244710;29;20039;-75
2021/04/23 06:22:06;;;;;;;4.60;2.65;;;;;;;43.44;4.90;98550.75;10257161;29;20113;-76
2021/04/23 06:27:26;;;;;;;9.20;2.60;;;;;;;43.93;4.53;98557.66;10244153;29;20521;-75
2021/04/23 06:32:47;;;;;;;6.55;2.55;;;;;;;43.75;3.65;98552.75;10243937;29;20058;-75
2021/04/23 06:38:08;;;;;;;5.65;3.10;;;;;;;43.27;4.43;98559.66;10243521;29;20050;-76
2021/04/23 06:43:29;;;;;;;4.35;2.00;;;;;;;44.73;3.77;98562.72;10243072;29;20043;-74
2021/04/23 06:48:49;;;;;;;3.65;1.90;;;;;;;45.76;3.69;98555.06;10256504;29;20751;-75
2021/04/23 06:54:10;;;;;;;5.28;1.90;;;;;;;47.27;2.72;98566.56;10229932;29;20438;-75
2021/04/23 06:59:30;;;;;;;4.15;1.80;;;;;;;48.45;2.24;98547.03;10255927;29;20443;-77
2021/04/23 07:04:51;;;;;;;6.05;2.10;;;;;;;48.88;2.37;98546.75;10242422;29;20051;-75
2021/04/23 07:10:14;;;;;;;4.60;1.85;;;;;;;50.11;1.59;98550.44;10242646;29;20043;-76
2021/04/23 07:15:34;;;;;;;4.80;2.10;;;;;;;50.16;1.85;98556.03;10242314;29;20394;-76
2021/04/23 07:20:55;;;;;;;6.30;2.03;;;;;;;47.19;2.13;98550.09;10228338;28;20047;-76
2021/04/23 07:26:19;;;;;;;3.28;1.83;;;;;;;45.07;2.32;98543.03;10241687;29;20058;-76
2021/04/23 07:31:39;;;;;;;3.17;1.83;;;;;;;40.52;3.97;98546.63;10228321;29;20043;-75
2021/04/23 07:36:59;;;;;;;5.70;2.15;;;;;;;35.44;5.71;98548.59;10254664;29;20039;-76
2021/04/23 07:42:22;;;;;;;5.53;1.85;;;;;;;41.77;4.99;98553.03;10241695;29;20051;-76
2021/04/23 07:47:43;;;;;;;4.00;1.65;;;;;;;48.21;2.10;98554.72;10226233;29;20058;-75
2021/04/23 07:53:04;;;;;;;3.38;1.70;;;;;;;50.65;1.38;98564.59;10252530;28;20450;-74
2021/04/23 07:58:25;;;;;;;3.17;1.73;;;;;;;50.67;1.40;98573.31;10254193;29;20050;-76
2021/04/23 08:03:45;;;;;;;4.95;1.90;;;;;;;44.55;2.68;98567.41;10240235;29;20047;-75
2021/04/23 08:09:06;;;;;;;3.78;1.80;;;;;;;48.21;1.98;98554.00;10253503;29;20055;-77
2021/04/23 08:14:26;;;;;;;4.55;1.70;;;;;;;51.40;1.13;98560.47;10226626;29;20039;-76
2021/04/23 08:19:48;;;;;;;3.38;1.35;;;;;;;52.74;0.37;98569.28;10253305;28;20063;-75
2021/04/23 08:25:09;;;;;;;3.85;1.90;;;;;;;46.22;1.97;98575.69;10226432;29;20059;-75
2021/04/23 08:30:29;;;;;;;5.65;2.00;;;;;;;38.92;3.71;98583.19;10239488;29;20047;-73
2021/04/23 08:35:52;;;;;;;5.47;2.10;;;;;;;31.22;7.08;98575.31;10239026;29;20047;-73
2021/04/23 08:41:16;;;;;;;4.43;2.05;;;;;;;26.22;9.69;98580.88;10227054;29;20105;-75
2021/04/23 08:46:41;;;;;;;6.20;1.80;;;;;;;23.23;11.88;98561.28;10226831;29;20039;-75
2021/04/23 08:52:02;;;;;;;5.13;2.20;;;;;;;21.59;13.56;98571.34;10225286;29;20048;-76
2021/04/23 08:57:23;;;;;;;3.55;1.75;;;;;;;20.96;15.06;98568.94;10225575;29;20051;-75
2021/04/23 09:02:44;;;;;;;5.68;2.17;;;;;;;22.74;15.14;98576.81;10238845;29;20051;-75
2021/04/23 09:08:07;;;;;;;5.07;2.03;;;;;;;21.79;15.38;98569.25;10237837;29;20043;-76
2021/04/23 09:13:27;;;;;;;5.80;2.20;;;;;;;22.60;16.34;98565.72;10225016;29;20058;-75
2021/04/23 09:18:48;;;;;;;7.47;2.00;;;;;;;27.60;13.57;98576.69;10238448;29;20043;-76
2021/04/23 09:24:08;;;;;;;3.85;2.08;;;;;;;26.64;13.26;98573.78;10238225;29;20071;-74
2021/04/23 09:29:32;;;;;;;4.80;1.60;;;;;;;26.59;13.46;98577.97;10238286;29;20047;-76
2021/04/23 09:35:03;;;;;;;4.10;2.40;;;;;;;25.61;13.28;98570.34;10225151;29;20095;-77
2021/04/23 09:40:33;;;;;;;4.97;2.50;;;;;;;24.66;14.30;98543.91;10238268;29;20055;-75
2021/04/23 09:45:54;;;;;;;4.57;2.03;;;;;;;29.17;12.98;98552.44;10255540;28;20497;-74
2021/04/23 09:51:18;;;;;;;6.82;2.17;;;;;;;29.53;11.25;98560.56;10258536;29;20496;-74
2021/04/23 09:56:39;;;;;;;6.97;2.40;;;;;;;30.45;11.84;98570.22;10245137;29;20505;-77
2021/04/23 10:02:04;;;;;;;7.75;2.38;;;;;;;31.61;11.81;98561.50;10244971;29;20043;-75
2021/04/23 10:07:25;;;;;;;5.95;2.40;;;;;;;38.24;6.89;98554.75;10244681;29;20047;-73
2021/04/23 10:12:53;;;;;;;4.95;2.10;;;;;;;33.08;8.62;98572.16;10244914;29;20047;-75
2021/04/23 10:18:14;;;;;;;5.22;2.30;;;;;;;39.49;6.70;98565.91;10245132;29;20047;-75
2021/04/23 10:23:34;;;;;;;3.93;2.30;;;;;;;32.82;8.10;98560.84;10244625;29;20114;-74
2021/04/23 10:28:54;;;;;;;6.93;2.95;;;;;;;32.24;9.23;98556.91;10243930;29;20048;-74
2021/04/23 10:34:15;;;;;;;6.65;2.60;;;;;;;37.61;7.66;98547.81;10257495;28;20039;-75
2021/04/23 10:39:42;;;;;;;3.97;2.30;;;;;;;38.07;6.25;98560.31;10230348;29;20051;-76
2021/04/23 10:45:03;;;;;;;5.13;2.45;;;;;;;33.55;8.05;98563.75;10230358;29;20160;-75
2021/04/23 10:51:09;;;;;;;8.38;3.00;;;;;;;31.08;9.55;98557.28;10243864;29;20050;-75
2021/04/23 10:56:36;;;;;;;5.80;2.80;;;;;;;29.78;10.55;98544.13;10242171;28;20043;-75
2021/04/23 11:02:16;;;;;;;4.00;2.65;;;;;;;28.59;11.00;98541.94;10229789;29;20043;-76
2021/04/23 11:08:06;;;;;;;6.25;3.08;;;;;;;27.90;11.60;98558.44;10229226;29;20483;-76
2021/04/23 11:13:33;;;;;;;6.28;2.70;;;;;;;27.41;12.09;98525.53;10231247;29;20048;-75
2021/04/23 11:19:16;;;;;;;3.40;2.50;;;;;;;26.66;12.37;98543.03;10255404;29;20125;-75
2021/04/23 11:24:37;;;;;;;8.65;3.05;;;;;;;26.35;12.72;98556.09;10245356;29;20062;-76
2021/04/23 11:29:57;;;;;;;5.82;2.60;;;;;;;25.33;13.45;98547.59;10255093;28;20044;-76
2021/04/23 11:35:24;;;;;;;6.75;2.90;;;;;;;24.06;14.29;98543.78;10254644;29;20043;-75
2021/04/23 11:40:44;;;;;;;4.82;2.70;;;;;;;23.66;15.00;98552.66;10227981;29;20048;-74
2021/04/23 11:46:04;;;;;;;4.68;2.70;;;;;;;23.20;15.60;98551.25;10240994;29;20070;-77
2021/04/23 11:51:26;;;;;;;8.43;2.67;;;;;;;22.70;15.83;98551.81;10228154;29;20070;-75
2021/04/23 11:56:46;;;;;;;5.13;2.42;;;;;;;22.27;16.21;98539.00;10240559;29;20062;-76
2021/04/23 12:02:07;;;;;;;7.55;2.95;;;;;;;21.78;17.29;98547.91;10226993;29;20059;-77
2021/04/23 12:07:39;;;;;;;6.05;2.72;;;;;;;20.85;17.55;98545.09;10226693;28;20050;-75
2021/04/23 12:13:16;;;;;;;6.32;3.30;;;;;;;20.13;18.49;98544.25;10253498;29;20054;-74
2021/04/23 12:18:57;;;;;;;3.97;2.67;;;;;;;20.14;18.74;98548.53;10240751;29;20047;-76
2021/04/23 12:24:23;;;;;;;7.35;3.45;;;;;;;19.78;19.63;98542.00;10239677;29;20054;-75
2021/04/23 12:29:47;;;;;;;10.05;3.63;;;;;;;19.16;19.72;98526.47;10239894;29;20098;-76
2021/04/23 12:35:07;;;;;;;4.90;3.17;;;;;;;18.80;20.03;98537.53;10239661;29;20047;-77
2021/04/23 12:40:38;;;;;;;;;;;;;;;18.95;20.20;98532.56;10227296;29;20043;-74
2021/04/23 12:45:58;;;;;;;5.72;3.30;;;;;;;18.82;20.51;98542.56;10239655;29;19934;-74
2021/04/23 12:51:19;;;;;;;4.78;2.63;;;;;;;18.71;20.49;98532.13;10239224;29;20055;-75
2021/04/23 12:56:40;;;;;;;5.63;2.80;;;;;;;18.54;21.10;98525.66;10253543;29;20393;-76
2021/04/23 13:02:00;;;;;;;5.25;2.80;;;;;;;18.22;21.21;98530.44;10238903;29;20046;-75
2021/04/23 13:07:21;;;;;;;4.25;2.67;;;;;;;18.19;21.41;98528.16;10238572;29;20420;-76
2021/04/23 13:12:42;;;;;;;5.78;3.05;;;;;;;17.93;21.59;98527.53;10238606;29;20051;-75
2021/04/23 13:18:22;;;;;;;4.38;3.40;;;;;;;17.80;21.86;98522.63;10227596;29;20039;-75
2021/04/23 13:23:47;;;;;;;6.68;3.30;;;;;;;17.68;22.10;98528.38;10229022;29;20051;-74
2021/04/23 13:29:09;;;;;;;5.30;2.95;;;;;;;17.50;22.71;98530.97;10225262;29;20439;-76
2021/04/23 13:34:30;;;;;;;6.30;3.58;;;;;;;17.26;22.69;98521.19;10229402;29;20055;-75
2021/04/23 13:40:09;;;;;;;5.47;3.70;;;;;;;17.00;23.47;98524.06;10245975;29;20050;-77
2021/04/23 13:45:30;;;;;;;7.03;3.20;;;;;;;16.94;23.45;98520.16;10245339;29;20102;-75
2021/04/23 13:50:50;;;;;;;4.88;3.50;;;;;;;16.70;23.65;98520.31;10245490;29;20035;-75
2021/04/23 13:56:14;;;;;;;6.63;3.70;;;;;;;16.25;24.37;98523.38;10226466;29;20052;-74
2021/04/23 14:01:40;;;;;;;7.07;3.47;;;;;;;15.89;25.04;98521.25;10196277;29;20047;-74
2021/04/23 14:07:03;;;;;;;5.75;3.20;;;;;;;15.97;24.94;98533.72;10210604;29;20047;-75
2021/04/23 14:12:24;;;;;;;7.43;3.63;;;;;;;15.95;24.77;98524.41;10205397;29;20051;-75
2021/04/23 14:17:45;;;;;;;7.22;3.10;;;;;;;15.68;25.48;98524.94;10205149;29;20157;-75
2021/04/23 14:23:05;;;;;;;7.72;2.95;;;;;;;15.52;25.49;98533.09;10204754;29;20055;-76
2021/04/23 14:28:26;;;;;;;6.63;3.00;;;;;;;15.57;26.30;98529.19;10207007;29;20376;-77
2021/04/23 14:33:47;;;;;;;4.72;2.72;;;;;;;15.42;26.08;98535.28;10206856;29;20044;-77
2021/04/23 14:39:09;;;;;;;6.70;2.72;;;;;;;15.28;26.33;98542.88;10208046;29;20043;-78
2021/04/23 14:44:30;;;;;;;8.93;2.58;;;;;;;14.80;26.93;98533.59;10208176;29;20040;-74
2021/04/23 14:49:51;;;;;;;5.65;2.58;;;;;;;14.67;26.68;98536.97;10216950;29;20043;-74
2021/04/23 14:55:14;;;;;;;5.57;2.78;;;;;;;14.45;26.87;98527.84;10191345;29;20102;-74
2021/04/23 15:00:34;;;;;;;4.40;2.43;;;;;;;14.42;27.28;98534.63;10190595;29;20487;-75
2021/04/23 15:05:55;;;;;;;5.72;2.92;;;;;;;14.53;27.37;98525.56;10203632;29;20051;-80
2021/04/23 15:11:15;;;;;;;4.95;2.80;;;;;;;14.47;27.58;98524.41;10190117;29;20044;-74
2021/04/23 15:16:36;;;;;;;7.05;3.08;;;;;;;14.50;27.33;98526.03;10216235;29;20443;-75
2021/04/23 15:21:56;;;;;;;5.00;2.95;;;;;;;14.09;28.04;98540.22;10189510;29;20122;-74
2021/04/23 15:27:17;;;;;;;5.75;2.72;;;;;;;13.92;28.15;98535.59;10202530;29;20051;-75
2021/04/23 15:32:38;;;;;;;8.05;3.20;;;;;;;13.76;28.04;98540.09;10212234;29;20054;-74
2021/04/23 15:37:59;;;;;;;6.60;2.90;;;;;;;13.79;28.69;98535.34;10228814;29;20040;-74
2021/04/23 15:43:20;;;;;;;6.38;3.20;;;;;;;13.59;28.81;98541.06;10240910;28;20091;-75
2021/04/23 15:48:42;;;;;;;9.10;2.90;;;;;;;13.54;28.44;98542.13;10227806;29;20051;-75
2021/04/23 15:54:04;;;;;;;6.07;3.15;;;;;;;13.45;28.67;98552.06;10228236;29;20044;-75
2021/04/23 15:59:24;;;;;;;5.95;3.10;;;;;;;13.25;28.87;98550.66;10241031;29;20435;-74
2021/04/23 16:04:45;;;;;;;6.03;2.92;;;;;;;13.06;29.09;98542.25;10240295;29;20047;-74
2021/04/23 16:10:06;;;;;;;6.65;4.07;;;;;;;12.82;29.49;98536.38;10240625;29;20114;-75
2021/04/23 16:15:28;;;;;;;5.78;3.05;;;;;;;12.60;29.73;98541.13;10240544;29;20051;-75
2021/04/23 16:20:49;;;;;;;6.32;3.30;;;;;;;12.53;29.98;98544.81;10229202;29;20418;-75
2021/04/23 16:26:09;;;;;;;7.55;3.78;;;;;;;12.43;30.01;98551.75;10242060;29;20066;-74
2021/04/23 16:31:32;;;;;;;6.60;3.55;;;;;;;12.33;30.17;98552.47;10239770;29;20051;-75
2021/04/23 16:36:52;;;;;;;4.97;3.28;;;;;;;12.31;30.50;98555.13;10239996;29;20487;-75
2021/04/23 16:42:13;;;;;;;5.65;3.10;;;;;;;12.16;30.63;98557.47;10236461;29;20039;-75
2021/04/23 16:47:34;;;;;;;4.32;3.05;;;;;;;12.04;30.85;98560.84;10239495;29;20044;-75
2021/04/23 16:52:56;;;;;;;5.45;2.92;;;;;;;11.83;31.31;98559.91;10252435;28;20130;-76
2021/04/23 16:58:16;;;;;;;5.18;2.65;;;;;;;11.68;31.06;98572.06;10240965;29;20043;-75
2021/04/23 17:03:36;;;;;;;4.55;2.47;;;;;;;11.63;32.31;98573.81;10253263;29;20051;-74
2021/04/23 17:08:57;;;;;;;4.65;2.72;;;;;;;11.52;32.25;98565.97;10239144;29;20170;-75
2021/04/23 17:14:17;;;;;;;5.75;2.88;;;;;;;11.34;31.77;98570.16;10221502;29;20043;-76
2021/04/23 17:19:39;;;;;;;6.35;2.90;;;;;;;11.22;32.64;98580.38;10200359;29;20055;-75
2021/04/23 17:25:00;;;;;;;9.40;2.85;;;;;;;11.04;32.46;98579.69;10173658;29;20467;-75
2021/04/23 17:30:24;;;;;;;8.43;2.70;;;;;;;10.89;33.22;98572.97;10186617;29;20059;-75
2021/04/23 17:35:45;;;;;;;6.25;2.97;;;;;;;10.76;33.58;98575.38;10199776;29;20050;-75
2021/04/23 17:41:11;;;;;;;5.35;2.60;;;;;;;10.53;33.15;98587.56;10212965;29;20051;-75
2021/04/23 17:46:31;;;;;;;6.10;3.10;;;;;;;10.38;33.25;98582.13;10186214;29;20471;-75
2021/04/23 17:51:52;;;;;;;7.90;2.72;;;;;;;10.28;34.04;98593.22;10220310;29;20035;-78
2021/04/23 17:57:12;;;;;;;6.15;3.38;;;;;;;10.11;33.80;98598.00;10234003;29;20043;-78
2021/04/23 18:02:33;;;;;;;10.68;3.42;;;;;;;9.91;34.25;98603.38;10214381;29;20040;-79
2021/04/23 18:07:56;;;;;;;4.90;3.08;;;;;;;9.77;35.21;98610.56;10190776;29;20047;-74
2021/04/23 18:13:16;;;;;;;6.80;3.20;;;;;;;9.62;35.54;98605.81;10219140;29;20499;-78
2021/04/23 18:18:37;;;;;;;8.50;3.30;;;;;;;9.49;35.69;98613.72;10206352;29;20059;-75
2021/04/23 18:23:57;;;;;;;6.50;3.72;;;;;;;9.30;36.57;98609.38;10218822;29;20067;-75
2021/04/23 18:29:18;;;;;;;6.18;3.30;;;;;;;9.20;35.93;98611.28;10191561;29;20071;-76
2021/04/23 18:34:39;;;;;;;6.13;3.47;;;;;;;9.07;36.20;98603.94;10191728;29;20439;-76
2021/04/23 18:39:59;;;;;;;7.50;3.13;;;;;;;8.94;37.17;98611.78;10205235;29;20415;-76
2021/04/23 18:45:22;;;;;;;9.32;3.85;;;;;;;8.83;37.28;98618.50;10204190;29;20054;-75
2021/04/23 18:50:43;;;;;;;9.07;3.30;;;;;;;8.67;37.37;98615.00;10218734;29;20048;-77
2021/04/23 18:56:03;;;;;;;6.47;3.33;;;;;;;8.66;37.54;98619.09;10204332;29;20044;-75
2021/04/23 19:01:24;;;;;;;7.85;3.53;;;;;;;8.64;37.42;98624.50;10204198;29;20044;-75
2021/04/23 19:06:44;;;;;;;8.63;3.78;;;;;;;8.59;37.61;98631.03;10203279;29;20411;-76
2021/04/23 19:12:05;;;;;;;7.30;3.42;;;;;;;8.53;37.85;98639.56;10203030;29;20043;-75
2021/04/23 19:17:25;;;;;;;7.13;3.75;;;;;;;8.46;38.99;98636.78;10202385;29;20039;-74
2021/04/23 19:22:46;;;;;;;6.50;3.42;;;;;;;8.40;38.32;98642.56;10202702;29;20483;-74
2021/04/23 19:28:07;;;;;;;9.32;3.50;;;;;;;8.31;38.48;98638.28;10202505;29;20044;-75
2021/04/23 19:33:28;;;;;;;10.93;3.88;;;;;;;8.33;38.95;98641.22;10202251;29;20103;-74
2021/04/23 19:38:49;;;;;;;15.32;4.90;;;;;;;8.36;39.04;98644.22;10215429;29;20051;-74
2021/04/23 19:44:09;;;;;;;13.18;6.07;;;;;;;8.31;38.98;98643.84;10201809;29;20047;-75
2021/04/23 19:49:29;;;;;;;11.60;5.50;;;;;;;8.19;39.16;98641.97;10215424;29;20407;-74
2021/04/23 19:54:54;;;;;;;11.32;5.55;;;;;;;8.15;39.40;98641.63;10188492;29;20063;-75
2021/04/23 20:00:14;;;;;;;12.18;5.82;;;;;;;8.04;39.68;98637.19;10201646;29;20055;-75
2021/04/23 20:05:35;;;;;;;13.32;5.93;;;;;;;8.03;40.03;98635.69;10201273;29;20118;-76
2021/04/23 20:10:56;;;;;;;10.88;4.57;;;;;;;7.94;39.78;98633.47;10201241;29;20044;-75
2021/04/23 20:16:16;;;;;;;14.80;6.13;;;;;;;7.87;40.32;98634.94;10188057;29;20051;-76
2021/04/23 20:21:36;;;;;;;17.38;7.00;;;;;;;7.87;40.54;98634.19;10187638;29;20448;-76
2021/04/23 20:26:59;;;;;;;13.13;6.15;;;;;;;7.77;40.75;98628.44;10195373;29;20040;-76
2021/04/23 20:32:19;;;;;;;9.13;4.32;;;;;;;7.65;40.94;98630.84;10222142;29;20039;-76
2021/04/23 20:37:43;;;;;;;10.32;4.15;;;;;;;7.53;41.18;98635.28;10220958;29;20070;-76
2021/04/23 20:43:04;;;;;;;7.70;3.40;;;;;;;7.43;41.54;98632.31;10234135;29;20407;-76
2021/04/23 20:48:24;;;;;;;7.07;3.67;;;;;;;7.35;41.40;98636.38;10229576;29;20054;-75
2021/04/23 20:53:44;;;;;;;9.57;4.70;;;;;;;7.25;41.92;98640.97;10216870;29;20050;-75
2021/04/23 20:59:06;;;;;;;6.53;3.90;;;;;;;7.14;42.14;98640.00;10218998;29;20054;-76
2021/04/23 21:04:27;;;;;;;12.05;4.90;;;;;;;7.10;42.43;98636.09;10235705;29;20134;-75
2021/04/23 21:09:48;;;;;;;11.48;5.90;;;;;;;7.01;43.07;98640.13;10239581;29;20052;-75
2021/04/23 21:15:11;;;;;;;10.75;5.80;;;;;;;6.98;42.81;98637.72;10239262;29;20399;-76
2021/04/23 21:20:32;;;;;;;10.35;6.03;;;;;;;6.97;43.23;98641.78;10239109;29;20043;-75
2021/04/23 21:25:53;;;;;;;9.98;5.60;;;;;;;6.93;42.97;98631.03;10252551;29;20058;-76
2021/04/23 21:31:13;;;;;;;10.73;5.78;;;;;;;6.93;43.20;98636.56;10252731;28;20054;-75
2021/04/23 21:36:35;;;;;;;9.48;5.35;;;;;;;6.87;43.46;98633.22;10252609;29;20058;-75
2021/04/23 21:41:56;;;;;;;10.27;5.38;;;;;;;6.86;43.51;98626.19;10243384;29;20050;-75
2021/04/23 21:47:16;;;;;;;13.98;5.32;;;;;;;6.85;43.74;98627.47;10246127;29;20098;-76
2021/04/23 21:52:36;;;;;;;11.80;5.80;;;;;;;6.86;43.77;98626.94;10246125;29;20094;-75
2021/04/23 21:57:57;;;;;;;10.82;5.90;;;;;;;6.81;43.97;98621.53;10246192;29;20039;-75
2021/04/23 22:03:18;;;;;;;9.25;5.53;;;;;;;6.74;44.23;98616.69;10245803;29;20043;-75
2021/04/23 22:08:38;;;;;;;11.10;5.57;;;;;;;6.70;44.35;98621.88;10245663;29;20047;-75
2021/04/23 22:13:58;;;;;;;8.48;4.70;;;;;;;6.67;44.91;98620.19;10245421;29;20482;-75
2021/04/23 22:19:19;;;;;;;10.68;5.45;;;;;;;6.67;44.86;98618.16;10232303;29;20046;-75
2021/04/23 22:24:39;;;;;;;10.98;4.80;;;;;;;6.67;44.91;98614.66;10231741;29;20052;-75
2021/04/23 22:30:00;;;;;;;9.30;5.32;;;;;;;6.65;45.33;98622.75;10245221;29;20044;-76
2021/04/23 22:35:28;;;;;;;8.50;5.03;;;;;;;6.59;44.76;98611.81;10231816;29;20051;-75
2021/04/23 22:40:48;;;;;;;8.10;4.25;;;;;;;6.51;45.36;98613.81;10244730;29;20039;-75
2021/04/23 22:46:09;;;;;;;8.77;4.50;;;;;;;6.46;45.49;98609.88;10244142;29;20098;-75
2021/04/23 22:51:30;;;;;;;9.15;4.47;;;;;;;6.42;45.60;98615.06;10243190;28;20065;-75
2021/04/23 22:56:50;;;;;;;8.27;4.50;;;;;;;6.37;45.65;98610.41;10244133;29;20058;-75
2021/04/23 23:02:11;;;;;;;7.25;4.57;;;;;;;6.28;46.32;98613.69;10243763;29;20047;-75
2021/04/23 23:07:33;;;;;;;7.07;4.40;;;;;;;6.25;46.26;98606.44;10230077;29;20047;-75
2021/04/23 23:12:53;;;;;;;9.50;4.53;;;;;;;6.19;46.04;98608.63;10243527;29;20048;-76
2021/04/23 23:18:14;;;;;;;8.82;4.35;;;;;;;6.16;46.46;98602.13;10256626;28;20043;-75
2021/04/23 23:23:47;;;;;;;8.65;3.95;;;;;;;6.15;46.53;98599.91;10244540;29;20114;-74
2021/04/23 23:29:08;;;;;;;9.02;4.43;;;;;;;6.12;46.55;98596.19;10229513;29;20479;-76
2021/04/23 23:34:32;;;;;;;7.47;4.03;;;;;;;6.12;47.03;98592.69;10229991;29;20043;-76
2021/04/23 23:39:53;;;;;;;10.18;4.03;;;;;;;6.15;47.15;98583.28;10241923;29;20046;-75
2021/04/23 23:45:14;;;;;;;7.63;4.43;;;;;;;6.15;47.13;98589.56;10255414;29;20043;-76
2021/04/23 23:50:34;;;;;;;9.20;5.50;;;;;;;6.11;47.59;98589.19;10255718;28;20040;-75
2021/04/23 23:55:55;;;;;;;10.70;5.20;;;;;;;6.11;46.84;98582.88;10228253;29;20054;-75
